createdAt,value
2018-05-24T00:01:12.672Z,15.27
2018-05-24T00:03:40.978Z,12.07
2018-05-24T00:06:08.541Z,14.30
2018-05-24T00:08:36.090Z,13.10
2018-05-24T00:11:03.927Z,13.57
2018-05-24T00:13:32.246Z,13.37
2018-05-24T00:15:59.806Z,14.10
2018-05-24T00:18:27.361Z,14.60
2018-05-24T00:20:54.946Z,13.93
2018-05-24T00:23:22.506Z,13.93
2018-05-24T00:25:50.092Z,14.60
2018-05-24T00:28:18.411Z,13.97
2018-05-24T00:30:45.972Z,15.23
2018-05-24T00:33:13.514Z,15.97
2018-05-24T00:35:41.125Z,15.10
2018-05-24T00:38:08.671Z,15.37
2018-05-24T00:40:36.232Z,14.37
2018-05-24T00:43:03.784Z,15.17
2018-05-24T00:45:31.340Z,15.13
2018-05-24T00:47:59.430Z,15.30
2018-05-24T00:50:26.970Z,15.03
2018-05-24T00:52:54.548Z,17.33
2018-05-24T00:55:46.004Z,14.90
2018-05-24T00:58:14.788Z,14.80
2018-05-24T01:00:43.108Z,14.67
2018-05-24T01:03:10.650Z,14.83
2018-05-24T01:05:38.191Z,15.07
2018-05-24T01:08:05.756Z,14.83
2018-05-24T01:10:33.287Z,17.13
2018-05-24T01:13:01.612Z,15.93
2018-05-24T01:15:29.175Z,15.63
2018-05-24T01:17:56.751Z,15.63
2018-05-24T01:20:24.348Z,13.73
2018-05-24T01:22:52.671Z,14.80
2018-05-24T01:25:20.200Z,14.33
2018-05-24T01:27:47.760Z,14.03
2018-05-24T01:30:15.305Z,17.27
2018-05-24T01:32:42.891Z,18.43
2018-05-24T01:35:10.442Z,17.33
2018-05-24T01:37:50.707Z,25.50
2018-05-24T01:40:18.273Z,17.50
2018-05-24T01:42:45.848Z,16.63
2018-05-24T01:45:13.399Z,17.60
2018-05-24T01:47:40.978Z,17.17
2018-05-24T01:50:08.527Z,16.97
2018-05-24T01:52:36.104Z,18.13
2018-05-24T01:55:03.725Z,17.83
2018-05-24T01:57:31.296Z,17.47
2018-05-24T01:59:58.846Z,19.60
2018-05-24T02:02:26.411Z,18.90
2018-05-24T02:04:53.972Z,21.07
2018-05-24T02:07:21.542Z,24.63
2018-05-24T02:09:49.094Z,23.70
2018-05-24T02:12:16.668Z,19.53
2018-05-24T02:14:44.219Z,20.23
2018-05-24T02:17:11.804Z,20.23
2018-05-24T02:19:40.164Z,19.10
2018-05-24T02:22:07.754Z,20.80
2018-05-24T02:24:36.164Z,20.87
2018-05-24T02:27:03.777Z,20.77
2018-05-24T02:29:32.143Z,21.37
2018-05-24T02:31:59.772Z,22.87
2018-05-24T02:34:27.333Z,23.37
2018-05-24T02:36:54.953Z,22.50
2018-05-24T02:39:22.513Z,23.90
2018-05-24T02:41:50.168Z,23.73
2018-05-24T02:44:17.725Z,22.40
2018-05-24T02:46:47.322Z,20.53
2018-05-24T02:49:15.648Z,19.90
2018-05-24T02:51:43.222Z,19.93
2018-05-24T02:54:10.829Z,20.07
2018-05-24T02:56:38.468Z,21.23
2018-05-24T02:59:06.063Z,20.77
2018-05-24T03:01:33.836Z,20.07
2018-05-24T03:04:01.337Z,20.77
2018-05-24T03:06:29.725Z,20.77
2018-05-24T03:08:57.293Z,21.17
2018-05-24T03:11:25.703Z,19.37
2018-05-24T03:13:53.249Z,19.87
2018-05-24T03:16:20.812Z,20.23
2018-05-24T03:18:48.447Z,21.60
2018-05-24T03:21:16.752Z,21.30
2018-05-24T03:23:44.368Z,20.97
2018-05-24T03:26:12.749Z,19.77
2018-05-24T03:28:40.410Z,19.33
2018-05-24T03:31:08.789Z,20.60
2018-05-24T03:33:36.405Z,20.63
2018-05-24T03:36:04.029Z,20.60
2018-05-24T03:38:32.363Z,20.20
2018-05-24T03:40:59.904Z,20.57
2018-05-24T03:43:27.495Z,19.43
2018-05-24T03:45:55.036Z,20.13
2018-05-24T03:48:22.641Z,19.93
2018-05-24T03:50:50.978Z,21.70
2018-05-24T03:53:18.543Z,19.37
2018-05-24T03:55:46.086Z,20.97
2018-05-24T03:58:13.648Z,18.73
2018-05-24T04:00:53.157Z,17.97
2018-05-24T04:03:32.627Z,19.13
2018-05-24T04:06:00.167Z,18.83
2018-05-24T04:08:27.744Z,19.73
2018-05-24T04:10:55.290Z,18.07
2018-05-24T04:13:22.846Z,16.90
2018-05-24T04:15:50.419Z,18.83
2018-05-24T04:18:17.972Z,17.27
2018-05-24T04:20:45.997Z,18.37
2018-05-24T04:23:14.399Z,18.10
2018-05-24T04:25:41.908Z,20.07
2018-05-24T04:28:09.475Z,18.17
2018-05-24T04:30:37.020Z,17.13
2018-05-24T04:33:05.633Z,17.55
2018-05-24T04:35:33.177Z,16.73
2018-05-24T04:38:00.756Z,17.57
2018-05-24T04:40:28.315Z,18.27
2018-05-24T04:42:56.644Z,17.20
2018-05-24T04:45:24.289Z,18.48
2018-05-24T04:47:51.820Z,17.95
2018-05-24T04:50:19.436Z,17.90
2018-05-24T04:52:47.034Z,17.40
2018-05-24T04:55:14.620Z,17.43
2018-05-24T04:57:42.178Z,18.23
2018-05-24T05:00:09.797Z,17.10
2018-05-24T05:02:38.112Z,17.55
2018-05-24T05:05:05.757Z,17.17
2018-05-24T05:07:33.312Z,16.45
2018-05-24T05:10:00.896Z,17.85
2018-05-24T05:12:28.434Z,18.65
2018-05-24T05:14:55.992Z,17.50
2018-05-24T05:17:23.523Z,17.35
2018-05-24T05:19:51.849Z,17.52
2018-05-24T05:22:19.392Z,16.15
2018-05-24T05:24:46.939Z,16.35
2018-05-24T05:27:14.481Z,16.40
2018-05-24T05:29:42.801Z,14.73
2018-05-24T05:32:10.332Z,14.13
2018-05-24T05:37:06.681Z,12.93
2018-05-24T05:39:34.227Z,13.25
2018-05-24T05:42:04.451Z,12.48
2018-05-24T05:44:32.768Z,13.85
2018-05-24T05:47:00.295Z,12.05
2018-05-24T05:49:27.851Z,13.38
2018-05-24T05:51:55.464Z,11.90
2018-05-24T05:54:22.972Z,12.20
2018-05-24T05:56:50.535Z,11.20
2018-05-24T05:59:18.067Z,10.90
2018-05-24T06:01:46.430Z,17.90
2018-05-24T06:04:13.961Z,11.02
2018-05-24T06:06:41.491Z,11.70
2018-05-24T06:09:09.048Z,11.25
2018-05-24T06:11:36.576Z,11.40
2018-05-24T06:14:04.914Z,10.95
2018-05-24T06:16:32.465Z,11.90
2018-05-24T06:19:00.036Z,11.32
2018-05-24T06:21:27.629Z,11.55
2018-05-24T06:23:55.148Z,11.75
2018-05-24T06:26:22.684Z,11.48
2018-05-24T06:28:50.259Z,11.70
2018-05-24T06:31:17.796Z,11.98
2018-05-24T06:33:45.432Z,12.88
2018-05-24T06:36:12.981Z,12.15
2018-05-24T06:38:41.316Z,13.02
2018-05-24T06:41:08.855Z,11.70
2018-05-24T06:43:36.409Z,12.82
2018-05-24T06:46:03.939Z,10.65
2018-05-24T06:48:32.314Z,11.63
2018-05-24T06:51:00.694Z,11.20
2018-05-24T06:53:29.032Z,11.30
2018-05-24T06:55:56.571Z,10.73
2018-05-24T06:58:24.104Z,10.20
2018-05-24T07:00:51.664Z,10.93
2018-05-24T07:03:19.193Z,9.95
2018-05-24T07:05:46.758Z,10.02
2018-05-24T07:08:15.058Z,10.40
2018-05-24T07:10:42.607Z,13.95
2018-05-24T07:13:10.904Z,9.90
2018-05-24T07:15:38.458Z,10.10
2018-05-24T07:18:05.991Z,9.60
2018-05-24T07:20:34.320Z,10.05
2018-05-24T07:23:14.690Z,9.43
2018-05-24T07:25:42.244Z,9.02
2018-05-24T07:28:09.763Z,8.98
2018-05-24T07:30:37.308Z,8.95
2018-05-24T07:33:05.608Z,9.20
2018-05-24T07:35:33.155Z,9.45
2018-05-24T07:38:00.697Z,9.93
2018-05-24T07:40:29.019Z,10.13
2018-05-24T07:42:56.539Z,9.45
2018-05-24T07:45:24.093Z,9.05
2018-05-24T07:47:52.378Z,9.70
2018-05-24T07:50:19.935Z,8.82
2018-05-24T07:52:47.475Z,10.65
2018-05-24T07:55:15.814Z,9.27
2018-05-24T07:57:43.362Z,9.82
2018-05-24T08:00:10.892Z,9.23
2018-05-24T08:02:38.451Z,9.82
2018-05-24T08:05:05.984Z,9.63
2018-05-24T08:07:34.304Z,9.20
2018-05-24T08:10:01.836Z,10.20
2018-05-24T08:12:30.147Z,9.77
2018-05-24T08:14:57.676Z,10.13
2018-05-24T08:17:25.220Z,8.75
2018-05-24T08:19:53.507Z,9.50
2018-05-24T08:22:21.055Z,9.38
2018-05-24T08:24:49.347Z,9.77
2018-05-24T08:27:17.572Z,9.95
2018-05-24T08:29:45.108Z,10.57
2018-05-24T08:32:12.668Z,10.77
2018-05-24T08:34:40.206Z,11.02
2018-05-24T08:37:07.760Z,11.50
2018-05-24T08:39:35.327Z,10.85
2018-05-24T08:42:02.861Z,12.50
2018-05-24T08:44:31.175Z,12.82
2018-05-24T08:46:58.731Z,13.35
2018-05-24T08:49:26.287Z,12.55
2018-05-24T08:51:53.827Z,13.02
2018-05-24T08:54:21.420Z,13.57
2018-05-24T08:56:48.948Z,13.80
2018-05-24T08:59:16.496Z,14.50
2018-05-24T09:01:44.028Z,14.40
2018-05-24T09:04:11.592Z,15.10
2018-05-24T09:06:39.895Z,15.27
2018-05-24T09:09:07.491Z,16.23
2018-05-24T09:11:35.072Z,15.85
2018-05-24T09:14:02.567Z,16.48
2018-05-24T09:16:30.090Z,15.90
2018-05-24T09:18:57.639Z,15.98
2018-05-24T09:21:25.168Z,15.85
2018-05-24T09:23:52.720Z,15.73
2018-05-24T09:26:20.269Z,16.70
2018-05-24T09:28:47.805Z,16.48
2018-05-24T09:31:16.123Z,16.30
2018-05-24T09:33:43.647Z,16.77
2018-05-24T09:36:11.209Z,44.38
2018-05-24T09:38:38.731Z,16.20
2018-05-24T09:41:06.283Z,18.05
2018-05-24T09:43:33.811Z,16.48
2018-05-24T09:46:01.357Z,16.85
2018-05-24T09:48:28.899Z,18.40
2018-05-24T09:50:56.443Z,17.98
2018-05-24T09:53:24.739Z,17.62
2018-05-24T09:55:52.304Z,17.90
2018-05-24T09:58:19.833Z,17.85
2018-05-24T10:00:48.148Z,18.48
2018-05-24T10:03:15.676Z,20.10
2018-05-24T10:05:43.989Z,19.80
2018-05-24T10:08:11.519Z,18.62
2018-05-24T10:10:39.082Z,18.62
2018-05-24T10:13:06.607Z,18.05
2018-05-24T10:15:34.151Z,18.33
2018-05-24T10:18:01.675Z,17.95
2018-05-24T10:20:29.195Z,18.67
2018-05-24T10:22:57.513Z,19.08
2018-05-24T10:25:25.045Z,19.58
2018-05-24T10:27:52.595Z,19.17
2018-05-24T10:30:20.891Z,20.33
2018-05-24T10:32:48.664Z,20.60
2018-05-24T10:35:16.205Z,21.45
2018-05-24T10:37:43.770Z,20.27
2018-05-24T10:40:11.296Z,19.33
2018-05-24T10:42:39.631Z,19.45
2018-05-24T10:45:07.247Z,19.55
2018-05-24T10:47:34.760Z,21.08
2018-05-24T10:50:02.307Z,19.80
2018-05-24T10:52:29.857Z,19.92
2018-05-24T10:54:57.421Z,20.40
2018-05-24T10:57:24.971Z,20.52
2018-05-24T10:59:52.499Z,21.15
2018-05-24T11:02:20.051Z,21.40
2018-05-24T11:04:48.339Z,19.83
2018-05-24T11:07:15.878Z,18.75
2018-05-24T11:09:44.171Z,20.60
2018-05-24T11:12:11.727Z,20.20
2018-05-24T11:14:40.020Z,21.08
2018-05-24T11:17:07.780Z,19.65
2018-05-24T11:19:35.303Z,20.67
2018-05-24T11:22:02.856Z,19.67
2018-05-24T11:24:30.389Z,19.55
2018-05-24T11:26:57.907Z,18.27
2018-05-24T11:29:25.491Z,20.08
2018-05-24T11:31:53.091Z,21.35
2018-05-24T11:34:20.581Z,19.20
2018-05-24T11:36:48.117Z,21.12
2018-05-24T11:39:16.432Z,20.83
2018-05-24T11:41:44.596Z,20.12
2018-05-24T11:44:12.177Z,20.05
2018-05-24T11:46:39.702Z,18.87
2018-05-24T11:49:07.257Z,18.60
2018-05-24T11:51:34.807Z,17.83
2018-05-24T11:54:03.128Z,17.20
2018-05-24T11:56:30.663Z,17.55
2018-05-24T11:58:58.214Z,17.35
2018-05-24T12:01:25.744Z,17.77
2018-05-24T12:03:53.287Z,17.30
2018-05-24T12:06:20.812Z,16.70
2018-05-24T12:08:48.356Z,18.08
2018-05-24T12:11:15.891Z,16.65
2018-05-24T12:13:44.217Z,16.37
2018-05-24T12:16:11.751Z,15.02
2018-05-24T12:18:39.291Z,16.00
2018-05-24T12:21:07.603Z,14.15
2018-05-24T12:23:35.132Z,13.73
2018-05-24T12:26:02.696Z,14.48
2018-05-24T12:28:30.238Z,14.05
2018-05-24T12:30:58.564Z,14.18
2018-05-24T12:33:26.102Z,18.00
2018-05-24T12:35:53.660Z,17.70
2018-05-24T12:38:21.191Z,17.95
2018-05-24T12:40:48.771Z,13.85
2018-05-24T12:43:16.326Z,14.75
2018-05-24T12:45:43.883Z,15.32
2018-05-24T12:48:11.418Z,14.25
2018-05-24T12:50:39.740Z,14.32
2018-05-24T12:53:07.270Z,13.20
2018-05-24T12:55:34.828Z,13.60
2018-05-24T12:58:02.359Z,14.18
2018-05-24T13:00:29.989Z,13.20
2018-05-24T13:02:57.518Z,15.00
2018-05-24T13:05:25.053Z,15.70
2018-05-24T13:07:53.366Z,14.52
2018-05-24T13:10:21.683Z,13.65
2018-05-24T13:12:49.241Z,13.93
2018-05-24T13:15:16.776Z,14.87
2018-05-24T13:17:44.437Z,14.77
2018-05-24T13:20:11.972Z,14.10
2018-05-24T13:22:39.535Z,14.50
2018-05-24T13:25:07.067Z,13.62
2018-05-24T13:27:34.625Z,13.80
2018-05-24T13:30:02.159Z,16.02
2018-05-24T13:32:41.500Z,16.33
2018-05-24T13:35:09.849Z,15.05
2018-05-24T13:37:37.403Z,15.10
2018-05-24T13:40:04.931Z,15.63
2018-05-24T13:42:32.479Z,15.57
2018-05-24T13:45:00.010Z,14.32
2018-05-24T13:47:28.327Z,14.07
2018-05-24T13:49:55.872Z,16.73
2018-05-24T13:52:23.425Z,15.43
2018-05-24T13:54:50.960Z,16.35
2018-05-24T13:57:31.187Z,15.38
2018-05-24T13:59:58.713Z,16.27
2018-05-24T14:02:26.273Z,15.30
2018-05-24T14:04:53.807Z,17.02
2018-05-24T14:07:22.131Z,17.45
2018-05-24T14:09:49.658Z,16.12
2018-05-24T14:12:17.192Z,16.83
2018-05-24T14:14:46.324Z,15.55
2018-05-24T14:17:13.858Z,15.77
2018-05-24T14:19:41.402Z,16.17
2018-05-24T14:22:09.738Z,15.82
2018-05-24T14:24:37.283Z,11.63
2018-05-24T14:27:04.807Z,12.02
2018-05-24T14:29:32.364Z,16.05
2018-05-24T14:32:00.659Z,13.35
2018-05-24T14:34:28.211Z,14.40
2018-05-24T14:36:55.736Z,13.62
2018-05-24T14:39:23.295Z,14.82
2018-05-24T14:41:51.589Z,14.50
2018-05-24T14:44:19.913Z,15.18
2018-05-24T14:46:47.448Z,14.60
2018-05-24T14:49:14.990Z,13.27
2018-05-24T14:51:42.510Z,12.85
2018-05-24T14:54:10.050Z,11.93
2018-05-24T14:56:37.579Z,14.45
2018-05-24T14:59:05.127Z,10.85
2018-05-24T15:01:32.655Z,11.68
2018-05-24T15:04:00.209Z,11.60
2018-05-24T15:06:27.744Z,11.63
2018-05-24T15:08:55.305Z,13.73
2018-05-24T15:11:22.831Z,12.70
2018-05-24T15:13:51.266Z,12.73
2018-05-24T15:16:19.571Z,13.60
2018-05-24T15:18:47.128Z,13.43
2018-05-24T15:21:14.655Z,14.27
2018-05-24T15:23:42.189Z,13.27
2018-05-24T15:26:09.739Z,13.30
2018-05-24T15:28:37.282Z,14.75
2018-05-24T15:31:04.862Z,14.43
2018-05-24T15:33:32.407Z,12.68
2018-05-24T15:35:59.946Z,11.68
2018-05-24T15:38:27.501Z,12.45
2018-05-24T15:40:55.028Z,11.27
2018-05-24T15:43:23.348Z,11.77
2018-05-24T15:45:51.647Z,11.40
2018-05-24T15:48:19.212Z,10.48
2018-05-24T15:50:46.752Z,11.32
2018-05-24T15:53:14.294Z,11.35
2018-05-24T15:55:41.824Z,11.45
2018-05-24T15:58:10.143Z,10.68
2018-05-24T16:00:37.698Z,10.80
2018-05-24T16:03:05.261Z,5.55
2018-05-24T16:05:32.798Z,3.50
2018-05-24T16:08:00.345Z,3.67
2018-05-24T16:10:27.871Z,3.83
2018-05-24T16:12:55.411Z,3.83
2018-05-24T16:15:22.940Z,4.55
2018-05-24T16:17:50.488Z,4.93
2018-05-24T16:20:18.008Z,4.87
2018-05-24T16:22:45.547Z,4.97
2018-05-24T16:25:13.071Z,5.55
2018-05-24T16:27:40.616Z,6.00
2018-05-24T16:30:08.135Z,8.13
2018-05-24T16:32:35.679Z,4.10
2018-05-24T16:35:03.199Z,4.10
2018-05-24T16:37:30.743Z,4.60
2018-05-24T16:39:58.311Z,4.87
2018-05-24T16:42:25.820Z,4.82
2018-05-24T16:44:53.344Z,4.65
2018-05-24T16:47:20.892Z,4.87
2018-05-24T16:49:49.395Z,4.80
2018-05-24T16:52:16.979Z,5.03
2018-05-24T16:54:44.510Z,5.40
2018-05-24T16:57:12.027Z,5.18
2018-05-24T16:59:40.328Z,4.90
2018-05-24T17:02:07.847Z,4.97
2018-05-24T17:04:36.163Z,5.12
2018-05-24T17:07:03.687Z,4.87
2018-05-24T17:09:32.000Z,5.28
2018-05-24T17:12:00.323Z,4.90
2018-05-24T17:14:27.876Z,4.95
2018-05-24T17:16:55.407Z,4.65
2018-05-24T17:19:22.959Z,4.93
2018-05-24T17:21:50.492Z,5.25
2018-05-24T17:24:18.911Z,5.12
2018-05-24T17:26:46.427Z,5.03
2018-05-24T17:29:13.971Z,5.30
2018-05-24T17:31:42.286Z,10.05
2018-05-24T17:34:09.847Z,5.78
2018-05-24T17:36:37.380Z,5.35
2018-05-24T17:39:04.924Z,5.75
2018-05-24T17:41:32.469Z,5.47
2018-05-24T17:44:00.019Z,6.20
2018-05-24T17:46:27.583Z,5.97
2018-05-24T17:48:55.136Z,6.47
2018-05-24T17:51:22.695Z,5.95
2018-05-24T17:53:50.240Z,6.97
2018-05-24T17:56:18.513Z,7.03
2018-05-24T17:58:46.548Z,6.30
2018-05-24T18:01:14.072Z,7.05
2018-05-24T18:03:42.388Z,7.40
2018-05-24T18:06:09.915Z,7.43
2018-05-24T18:08:38.240Z,6.68
2018-05-24T18:11:05.767Z,7.45
2018-05-24T18:13:34.057Z,6.93
2018-05-24T18:16:01.591Z,6.97
2018-05-24T18:18:29.148Z,9.20
2018-05-24T18:20:56.999Z,7.18
2018-05-24T18:23:25.321Z,7.28
2018-05-24T18:25:52.892Z,7.62
2018-05-24T18:28:20.435Z,8.20
2018-05-24T18:30:47.964Z,8.30
2018-05-24T18:33:15.511Z,8.02
2018-05-24T18:35:43.804Z,8.13
2018-05-24T18:38:11.423Z,8.05
2018-05-24T18:40:38.960Z,7.30
2018-05-24T18:43:06.504Z,8.85
2018-05-24T18:45:34.042Z,7.40
2018-05-24T18:48:01.591Z,7.32
2018-05-24T18:50:30.507Z,8.07
2018-05-24T18:52:58.804Z,7.85
2018-05-24T18:55:26.344Z,7.70
2018-05-24T18:57:53.871Z,7.53
2018-05-24T19:00:22.183Z,7.93
2018-05-24T19:02:49.704Z,8.13
2018-05-24T19:05:18.009Z,7.37
2018-05-24T19:07:45.540Z,8.25
2018-05-24T19:10:13.849Z,8.70
2018-05-24T19:12:41.376Z,8.23
2018-05-24T19:15:08.924Z,8.10
2018-05-24T19:17:37.220Z,8.13
2018-05-24T19:20:04.764Z,8.18
2018-05-24T19:22:33.061Z,7.57
2018-05-24T19:25:00.613Z,8.02
2018-05-24T19:27:28.138Z,7.90
2018-05-24T19:29:55.727Z,8.55
2018-05-24T19:32:23.288Z,8.20
2018-05-24T19:34:50.883Z,7.95
2018-05-24T19:37:18.390Z,8.38
2018-05-24T19:39:46.705Z,8.82
2018-05-24T19:42:14.233Z,7.97
2018-05-24T19:44:41.780Z,8.93
2018-05-24T19:47:09.320Z,8.25
2018-05-24T19:49:37.680Z,7.78
2018-05-24T19:52:05.216Z,42.62
2018-05-24T19:54:32.772Z,18.62
2018-05-24T19:57:00.307Z,10.60
2018-05-24T19:59:27.860Z,9.63
2018-05-24T20:01:55.392Z,9.80
2018-05-24T20:04:22.939Z,9.52
2018-05-24T20:06:50.472Z,10.38
2018-05-24T20:09:18.029Z,9.27
2018-05-24T20:11:45.560Z,8.88
2018-05-24T20:14:13.104Z,8.40
2018-05-24T20:16:41.400Z,10.13
2018-05-24T20:19:08.964Z,10.25
2018-05-24T20:21:36.504Z,10.20
2018-05-24T20:24:04.091Z,10.98
2018-05-24T20:26:31.634Z,9.90
2018-05-24T20:28:59.182Z,10.48
2018-05-24T20:31:27.467Z,9.82
2018-05-24T20:33:55.030Z,11.57
2018-05-24T20:36:22.596Z,10.27
2018-05-24T20:38:50.190Z,10.45
2018-05-24T20:41:17.719Z,10.57
2018-05-24T20:43:45.276Z,12.45
2018-05-24T20:46:12.803Z,11.68
2018-05-24T20:48:41.127Z,11.48
2018-05-24T20:51:08.675Z,12.60
2018-05-24T20:53:36.232Z,12.80
2018-05-24T20:56:03.787Z,12.90
2018-05-24T20:58:31.327Z,11.35
2018-05-24T21:00:58.900Z,10.65
2018-05-24T21:03:26.465Z,10.43
2018-05-24T21:05:54.073Z,11.93
2018-05-24T21:08:22.385Z,13.80
2018-05-24T21:10:49.954Z,14.98
2018-05-24T21:13:17.491Z,14.38
2018-05-24T21:15:45.052Z,13.60
2018-05-24T21:18:12.591Z,14.65
2018-05-24T21:20:40.931Z,13.60
2018-05-24T21:23:08.464Z,15.18
2018-05-24T21:25:36.012Z,14.65
2018-05-24T21:28:03.548Z,15.70
2018-05-24T21:30:31.876Z,16.10
2018-05-24T21:32:59.419Z,14.18
2018-05-24T21:35:26.976Z,15.15
2018-05-24T21:37:54.520Z,15.05
2018-05-24T21:40:22.084Z,14.27
2018-05-24T21:42:49.611Z,15.10
2018-05-24T21:45:17.936Z,15.40
2018-05-24T21:47:45.465Z,15.30
2018-05-24T21:50:13.019Z,15.73
2018-05-24T21:52:40.556Z,14.80
2018-05-24T21:55:08.888Z,15.73
2018-05-24T21:57:36.427Z,14.50
2018-05-24T22:00:03.994Z,15.40
2018-05-24T22:02:32.304Z,15.60
2018-05-24T22:04:59.867Z,16.65
2018-05-24T22:07:27.451Z,16.40
2018-05-24T22:09:55.779Z,16.23
2018-05-24T22:12:23.311Z,15.98
2018-05-24T22:14:50.869Z,17.05
2018-05-24T22:17:18.404Z,17.05
2018-05-24T22:19:45.964Z,16.05
2018-05-24T22:22:14.273Z,15.50
2018-05-24T22:24:41.829Z,16.30
2018-05-24T22:27:09.373Z,16.10
2018-05-24T22:29:36.935Z,17.85
2018-05-24T22:32:04.479Z,16.90
2018-05-24T22:34:32.808Z,16.83
2018-05-24T22:37:00.346Z,16.80
2018-05-24T22:39:27.897Z,17.23
2018-05-24T22:41:55.440Z,16.73
2018-05-24T22:44:22.975Z,16.90
2018-05-24T22:46:50.536Z,16.57
2018-05-24T22:49:18.848Z,17.33
2018-05-24T22:51:46.395Z,16.85
2018-05-24T22:54:13.933Z,15.75
2018-05-24T22:56:42.264Z,16.67
2018-05-24T22:59:09.805Z,16.15
2018-05-24T23:01:37.360Z,17.13
2018-05-24T23:04:04.908Z,18.77
2018-05-24T23:06:32.464Z,17.23
2018-05-24T23:09:00.003Z,17.77
2018-05-24T23:11:28.319Z,17.90
2018-05-24T23:13:55.852Z,17.35
2018-05-24T23:16:24.319Z,17.63
2018-05-24T23:18:51.851Z,17.67
2018-05-24T23:21:19.396Z,17.20
2018-05-24T23:23:46.930Z,17.83
2018-05-24T23:26:14.479Z,18.20
2018-05-24T23:28:42.043Z,18.57
2018-05-24T23:31:09.638Z,17.53
2018-05-24T23:33:37.144Z,17.33
2018-05-24T23:36:04.700Z,16.57
2018-05-24T23:38:32.261Z,18.23
2018-05-24T23:41:00.576Z,18.33
2018-05-24T23:43:28.118Z,17.30
2018-05-24T23:45:55.700Z,17.77
2018-05-24T23:48:23.225Z,18.20
2018-05-24T23:50:50.778Z,16.90
2018-05-24T23:53:18.312Z,18.00
2018-05-24T23:55:45.859Z,17.60
2018-05-24T23:58:13.400Z,18.10
